createdAt,value
2023-04-22T00:02:20.843Z,2.67
2023-04-22T00:05:30.499Z,2.33
2023-04-22T00:08:44.355Z,2.10
2023-04-22T00:11:56.299Z,2.08
2023-04-22T00:15:07.371Z,2.37
2023-04-22T00:18:20.398Z,2.30
2023-04-22T00:24:41.499Z,1.85
2023-04-22T00:27:53.058Z,2.30
2023-04-22T00:31:03.962Z,2.08
2023-04-22T00:34:14.684Z,1.35
2023-04-22T00:37:27.118Z,2.08
2023-04-22T00:40:40.493Z,2.22
2023-04-22T00:43:54.132Z,2.12
2023-04-22T00:47:04.206Z,1.30
2023-04-22T00:50:17.217Z,1.47
2023-04-22T00:53:27.980Z,1.45
2023-04-22T00:56:41.520Z,2.50
2023-04-22T00:59:53.949Z,1.02
2023-04-22T01:03:05.144Z,1.67
2023-04-22T01:06:15.015Z,1.37
2023-04-22T01:09:25.872Z,1.60
2023-04-22T01:12:37.820Z,1.25
2023-04-22T01:15:49.135Z,1.17
2023-04-22T01:18:58.017Z,1.57
2023-04-22T01:22:07.519Z,1.10
2023-04-22T01:25:16.490Z,1.57
2023-04-22T01:28:27.844Z,1.77
2023-04-22T01:31:39.557Z,1.30
2023-04-22T01:34:49.963Z,1.82
2023-04-22T01:38:01.733Z,1.57
2023-04-22T01:41:12.770Z,1.37
2023-04-22T01:44:23.501Z,1.30
2023-04-22T01:47:35.214Z,1.40
2023-04-22T01:50:47.528Z,1.82
2023-04-22T01:53:57.654Z,1.90
2023-04-22T01:57:12.076Z,1.27
2023-04-22T02:00:27.181Z,1.10
2023-04-22T02:03:35.310Z,0.80
2023-04-22T02:06:46.679Z,1.17
2023-04-22T02:09:57.741Z,1.27
2023-04-22T02:13:08.532Z,1.45
2023-04-22T02:16:20.367Z,1.52
2023-04-22T02:19:29.307Z,1.20
2023-04-22T02:22:39.683Z,2.15
2023-04-22T02:25:52.712Z,1.32
2023-04-22T02:32:13.136Z,1.20
2023-04-22T02:35:24.411Z,1.00
2023-04-22T02:38:35.597Z,1.35
2023-04-22T02:41:43.835Z,0.80
2023-04-22T02:44:55.934Z,1.17
2023-04-22T02:48:07.236Z,1.85
2023-04-22T02:51:15.415Z,0.98
2023-04-22T02:54:26.073Z,1.47
2023-04-22T02:57:37.062Z,1.40
2023-04-22T03:00:48.558Z,1.25
2023-04-22T03:03:58.489Z,1.25
2023-04-22T03:07:08.110Z,1.22
2023-04-22T03:10:18.967Z,0.70
2023-04-22T03:13:31.120Z,0.98
2023-04-22T03:16:41.923Z,1.10
2023-04-22T03:19:52.918Z,0.90
2023-04-22T03:23:03.304Z,0.98
2023-04-22T03:26:14.287Z,1.17
2023-04-22T03:29:23.862Z,1.55
2023-04-22T03:32:39.962Z,1.27
2023-04-22T03:35:50.259Z,0.90
2023-04-22T03:39:03.481Z,1.17
2023-04-22T03:42:13.229Z,0.93
2023-04-22T03:45:25.708Z,1.05
2023-04-22T03:48:36.476Z,1.05
2023-04-22T03:51:49.868Z,1.17
2023-04-22T03:55:00.306Z,1.00
2023-04-22T03:58:11.461Z,1.20
2023-04-22T04:01:21.480Z,1.12
2023-04-22T04:04:33.472Z,1.37
2023-04-22T04:07:47.752Z,0.97
2023-04-22T04:10:59.118Z,0.80
2023-04-22T04:14:11.617Z,0.90
2023-04-22T04:17:25.485Z,0.95
2023-04-22T04:20:34.163Z,1.30
2023-04-22T04:23:43.769Z,0.90
2023-04-22T04:26:55.237Z,1.05
2023-04-22T04:30:07.971Z,1.20
2023-04-22T04:33:18.058Z,1.40
2023-04-22T04:36:32.025Z,0.70
2023-04-22T04:39:42.890Z,1.05
2023-04-22T04:42:55.046Z,1.20
2023-04-22T04:46:06.080Z,0.80
2023-04-22T04:49:16.281Z,0.90
2023-04-22T04:52:29.085Z,0.82
2023-04-22T04:55:42.196Z,1.02
2023-04-22T04:58:56.972Z,0.85
2023-04-22T05:02:08.467Z,0.70
2023-04-22T05:05:24.859Z,0.85
2023-04-22T05:08:34.185Z,0.80
2023-04-22T05:11:45.655Z,0.85
2023-04-22T05:14:58.359Z,1.30
2023-04-22T05:18:09.351Z,1.00
2023-04-22T05:21:20.945Z,1.30
2023-04-22T05:24:30.595Z,1.35
2023-04-22T05:27:41.481Z,1.17
2023-04-22T05:30:53.196Z,0.82
2023-04-22T05:34:06.776Z,0.90
2023-04-22T05:37:17.437Z,0.62
2023-04-22T05:40:29.238Z,1.55
2023-04-22T05:43:40.964Z,0.75
2023-04-22T05:46:50.690Z,0.80
2023-04-22T05:50:01.002Z,0.70
2023-04-22T05:53:12.467Z,0.65
2023-04-22T05:56:21.625Z,0.90
2023-04-22T05:59:31.863Z,0.88
2023-04-22T06:02:40.243Z,0.80
2023-04-22T06:05:50.766Z,0.72
2023-04-22T06:09:04.010Z,0.72
2023-04-22T06:12:16.616Z,0.80
2023-04-22T06:15:26.220Z,0.70
2023-04-22T06:18:38.780Z,0.60
2023-04-22T06:21:49.832Z,1.17
2023-04-22T06:25:00.806Z,0.80
2023-04-22T06:28:09.668Z,0.70
2023-04-22T06:31:22.023Z,0.60
2023-04-22T06:34:34.552Z,0.60
2023-04-22T06:37:47.289Z,0.80
2023-04-22T06:40:54.810Z,0.93
2023-04-22T06:44:05.175Z,1.15
2023-04-22T06:47:17.313Z,0.50
2023-04-22T06:50:27.983Z,0.85
2023-04-22T06:53:38.371Z,1.05
2023-04-22T06:56:49.818Z,0.80
2023-04-22T07:00:02.649Z,0.80
2023-04-22T07:03:15.391Z,0.72
2023-04-22T07:06:26.206Z,0.75
2023-04-22T07:09:36.911Z,0.65
2023-04-22T07:12:50.377Z,0.60
2023-04-22T07:16:01.440Z,0.80
2023-04-22T07:19:11.091Z,0.82
2023-04-22T07:22:23.797Z,0.80
2023-04-22T07:25:33.629Z,0.55
2023-04-22T07:28:45.388Z,1.02
2023-04-22T07:31:56.514Z,0.55
2023-04-22T07:35:05.142Z,1.05
2023-04-22T07:38:15.895Z,0.50
2023-04-22T07:41:26.721Z,0.78
2023-04-22T07:44:39.303Z,0.95
2023-04-22T07:47:49.756Z,0.70
2023-04-22T07:50:59.489Z,0.90
2023-04-22T07:54:11.009Z,0.70
2023-04-22T07:57:20.745Z,0.72
2023-04-22T08:00:33.493Z,0.80
2023-04-22T08:03:44.788Z,0.50
2023-04-22T08:06:57.307Z,0.60
2023-04-22T08:10:08.707Z,0.93
2023-04-22T08:13:20.573Z,0.72
2023-04-22T08:16:30.655Z,1.00
2023-04-22T08:19:41.229Z,0.82
2023-04-22T08:22:52.235Z,0.80
2023-04-22T08:26:03.150Z,0.78
2023-04-22T08:29:16.332Z,0.90
2023-04-22T08:32:30.521Z,0.42
2023-04-22T08:35:52.761Z,0.75
2023-04-22T08:39:03.683Z,0.82
2023-04-22T08:42:14.209Z,0.90
2023-04-22T08:45:23.979Z,0.78
2023-04-22T08:48:35.536Z,0.80
2023-04-22T08:51:45.120Z,0.82
2023-04-22T08:54:55.611Z,0.60
2023-04-22T08:58:06.523Z,0.60
2023-04-22T09:01:18.437Z,0.85
2023-04-22T09:04:30.489Z,0.65
2023-04-22T09:07:45.105Z,0.60
2023-04-22T09:10:55.072Z,0.57
2023-04-22T09:14:06.710Z,0.70
2023-04-22T09:17:20.307Z,0.60
2023-04-22T09:20:35.687Z,0.70
2023-04-22T09:23:53.317Z,0.80
2023-04-22T09:27:08.601Z,0.65
2023-04-22T09:30:22.557Z,0.90
2023-04-22T09:33:30.274Z,0.50
2023-04-22T09:36:39.951Z,0.68
2023-04-22T09:39:49.775Z,0.85
2023-04-22T09:43:03.297Z,0.62
2023-04-22T09:46:15.510Z,0.50
2023-04-22T09:49:25.519Z,0.70
2023-04-22T09:52:36.786Z,0.60
2023-04-22T09:55:47.532Z,0.82
2023-04-22T09:58:58.496Z,0.60
2023-04-22T10:02:10.301Z,1.05
2023-04-22T10:05:19.715Z,0.82
2023-04-22T10:08:28.967Z,0.98
2023-04-22T10:11:36.724Z,0.57
2023-04-22T10:14:48.310Z,0.78
2023-04-22T10:17:59.795Z,0.88
2023-04-22T10:21:10.104Z,0.60
2023-04-22T10:24:22.995Z,0.60
2023-04-22T10:27:30.564Z,0.93
2023-04-22T10:30:41.972Z,0.70
2023-04-22T10:33:54.259Z,0.90
2023-04-22T10:37:04.921Z,0.60
2023-04-22T10:40:18.741Z,0.55
2023-04-22T10:43:45.831Z,0.57
2023-04-22T10:47:06.074Z,0.70
2023-04-22T10:50:23.508Z,0.65
2023-04-22T10:53:45.782Z,0.78
2023-04-22T10:57:09.353Z,1.02
2023-04-22T11:04:03.545Z,0.50
2023-04-22T11:07:36.355Z,0.53
2023-04-22T11:10:49.114Z,1.13
2023-04-22T11:13:58.358Z,0.65
2023-04-22T11:17:09.189Z,0.60
2023-04-22T11:20:18.938Z,0.70
2023-04-22T11:23:29.016Z,0.47
2023-04-22T11:26:45.518Z,0.57
2023-04-22T11:30:05.368Z,0.88
2023-04-22T11:33:14.909Z,1.05
2023-04-22T11:36:23.781Z,0.78
2023-04-22T11:39:59.715Z,0.80
2023-04-22T11:42:54.800Z,0.75
2023-04-22T11:46:07.036Z,0.50
2023-04-22T11:49:26.590Z,0.60
2023-04-22T11:52:49.913Z,1.05
2023-04-22T11:56:00.891Z,0.80
2023-04-22T11:59:13.549Z,0.93
2023-04-22T12:02:22.726Z,0.60
2023-04-22T12:05:44.994Z,0.72
2023-04-22T12:08:58.132Z,0.80
2023-04-22T12:12:08.716Z,0.80
2023-04-22T12:15:18.720Z,0.60
2023-04-22T12:18:39.292Z,0.50
2023-04-22T12:21:49.793Z,0.68
2023-04-22T12:25:03.943Z,0.70
2023-04-22T12:28:18.896Z,0.70
2023-04-22T12:31:28.770Z,0.82
2023-04-22T12:34:39.199Z,0.88
2023-04-22T12:37:47.412Z,0.68
2023-04-22T12:40:55.796Z,1.22
2023-04-22T12:44:06.709Z,0.93
2023-04-22T12:47:16.123Z,0.78
2023-04-22T12:50:28.132Z,0.80
2023-04-22T12:53:40.250Z,0.70
2023-04-22T12:56:49.663Z,0.70
2023-04-22T13:00:00.805Z,1.02
2023-04-22T13:03:14.896Z,1.00
2023-04-22T13:06:23.267Z,0.80
2023-04-22T13:09:33.659Z,1.42
2023-04-22T13:12:42.171Z,1.05
2023-04-22T13:15:54.578Z,0.98
2023-04-22T13:19:08.202Z,0.78
2023-04-22T13:22:20.423Z,1.32
2023-04-22T13:25:31.352Z,0.85
2023-04-22T13:28:44.119Z,1.07
2023-04-22T13:31:53.297Z,1.45
2023-04-22T13:35:03.129Z,0.85
2023-04-22T13:38:15.160Z,0.53
2023-04-22T13:41:24.667Z,0.85
2023-04-22T13:44:36.540Z,0.68
2023-04-22T13:47:46.695Z,0.82
2023-04-22T13:51:01.807Z,1.15
2023-04-22T13:54:13.209Z,0.90
2023-04-22T13:57:27.597Z,0.80
2023-04-22T14:00:38.033Z,1.12
2023-04-22T14:03:54.418Z,0.70
2023-04-22T14:07:06.366Z,0.72
2023-04-22T14:10:20.470Z,0.93
2023-04-22T14:13:32.341Z,0.93
2023-04-22T14:16:43.088Z,0.88
2023-04-22T14:19:54.186Z,1.00
2023-04-22T14:23:05.151Z,0.72
2023-04-22T14:26:14.526Z,1.00
2023-04-22T14:29:26.738Z,0.72
2023-04-22T14:32:37.228Z,1.02
2023-04-22T14:35:48.842Z,0.82
2023-04-22T14:38:57.576Z,1.40
2023-04-22T14:42:09.014Z,1.15
2023-04-22T14:45:20.643Z,1.27
2023-04-22T14:48:31.798Z,0.78
2023-04-22T14:51:40.349Z,1.27
2023-04-22T14:54:52.058Z,1.50
2023-04-22T14:58:03.526Z,1.35
2023-04-22T15:01:11.669Z,1.35
2023-04-22T15:04:24.708Z,1.90
2023-04-22T15:07:34.237Z,0.90
2023-04-22T15:10:42.553Z,2.02
2023-04-22T15:13:52.639Z,1.67
2023-04-22T15:17:03.385Z,1.72
2023-04-22T15:20:13.140Z,1.20
2023-04-22T15:23:23.997Z,1.20
2023-04-22T15:26:36.350Z,2.47
2023-04-22T15:29:47.921Z,1.30
2023-04-22T15:32:57.744Z,1.42
2023-04-22T15:36:09.491Z,1.75
2023-04-22T15:39:18.923Z,0.80
2023-04-22T15:42:30.508Z,1.30
2023-04-22T15:45:40.084Z,1.27
2023-04-22T15:48:50.729Z,1.50
2023-04-22T15:52:01.659Z,1.62
2023-04-22T15:55:13.685Z,7.17
2023-04-22T15:58:25.082Z,7.17
2023-04-22T16:01:36.101Z,8.70
2023-04-22T16:04:44.746Z,6.08
2023-04-22T16:07:54.722Z,5.40
2023-04-22T16:11:02.710Z,5.20
2023-04-22T16:14:15.543Z,4.58
2023-04-22T16:17:27.898Z,5.28
2023-04-22T16:20:40.071Z,5.87
2023-04-22T16:23:53.506Z,2.90
2023-04-22T16:27:09.246Z,3.52
2023-04-22T16:30:23.237Z,2.45
2023-04-22T16:33:35.077Z,2.75
2023-04-22T16:36:45.139Z,2.75
2023-04-22T16:39:59.423Z,2.00
2023-04-22T16:43:10.948Z,2.02
2023-04-22T16:46:19.465Z,1.98
2023-04-22T16:49:28.183Z,2.33
2023-04-22T16:52:39.614Z,1.82
2023-04-22T16:55:50.971Z,2.02
2023-04-22T16:59:02.092Z,2.85
2023-04-22T17:02:11.455Z,1.35
2023-04-22T17:05:22.130Z,2.05
2023-04-22T17:08:32.971Z,1.98
2023-04-22T17:11:42.477Z,1.60
2023-04-22T17:14:53.152Z,1.98
2023-04-22T17:18:05.755Z,1.52
2023-04-22T17:24:31.379Z,1.53
2023-04-22T17:27:41.583Z,1.72
2023-04-22T17:30:51.453Z,1.50
2023-04-22T17:34:04.120Z,1.35
2023-04-22T17:37:14.282Z,1.00
2023-04-22T17:40:23.563Z,0.90
2023-04-22T17:43:36.808Z,1.55
2023-04-22T17:46:47.274Z,1.02
2023-04-22T17:49:58.452Z,1.47
2023-04-22T17:53:06.131Z,1.37
2023-04-22T17:59:32.066Z,1.00
2023-04-22T18:02:42.124Z,2.02
2023-04-22T18:05:50.251Z,1.92
2023-04-22T18:09:01.349Z,1.10
2023-04-22T18:12:14.348Z,1.25
2023-04-22T18:15:25.970Z,1.20
2023-04-22T18:18:35.999Z,0.98
2023-04-22T18:21:59.561Z,0.80
2023-04-22T18:25:04.774Z,1.00
2023-04-22T18:28:15.581Z,0.90
2023-04-22T18:31:28.741Z,1.17
2023-04-22T18:37:46.437Z,1.37
2023-04-22T18:41:01.067Z,1.62
2023-04-22T18:44:12.766Z,1.15
2023-04-22T18:47:24.641Z,1.10
2023-04-22T18:50:35.083Z,0.95
2023-04-22T18:53:45.075Z,1.25
2023-04-22T18:56:59.560Z,0.80
2023-04-22T19:00:15.071Z,0.72
2023-04-22T19:03:27.572Z,1.00
2023-04-22T19:06:38.218Z,1.12
2023-04-22T19:09:52.022Z,0.95
2023-04-22T19:13:00.534Z,0.90
2023-04-22T19:16:11.660Z,0.80
2023-04-22T19:19:24.627Z,0.82
2023-04-22T19:22:36.917Z,1.57
2023-04-22T19:25:51.442Z,0.80
2023-04-22T19:29:04.664Z,0.78
2023-04-22T19:32:16.508Z,0.57
2023-04-22T19:35:27.203Z,1.32
2023-04-22T19:38:38.900Z,0.78
2023-04-22T19:41:51.062Z,0.90
2023-04-22T19:45:02.152Z,0.83
2023-04-22T19:48:15.278Z,0.70
2023-04-22T19:54:32.421Z,0.88
2023-04-22T19:57:44.815Z,0.93
2023-04-22T20:00:56.536Z,0.65
2023-04-22T20:04:09.096Z,1.00
2023-04-22T20:07:21.050Z,0.60
2023-04-22T20:10:33.033Z,0.95
2023-04-22T20:13:48.411Z,0.70
2023-04-22T20:17:02.684Z,1.98
2023-04-22T20:20:16.858Z,0.68
2023-04-22T20:23:28.332Z,0.60
2023-04-22T20:26:38.497Z,0.82
2023-04-22T20:29:50.121Z,0.72
2023-04-22T20:33:02.438Z,0.95
2023-04-22T20:36:11.969Z,0.85
2023-04-22T20:39:20.377Z,0.78
2023-04-22T20:42:34.794Z,0.60
2023-04-22T20:45:48.760Z,0.72
2023-04-22T20:48:59.809Z,0.72
2023-04-22T20:52:11.132Z,0.80
2023-04-22T20:55:23.180Z,0.88
2023-04-22T20:58:33.984Z,0.50
2023-04-22T21:01:46.286Z,1.00
2023-04-22T21:04:56.183Z,1.00
2023-04-22T21:08:08.338Z,1.32
2023-04-22T21:11:22.801Z,0.90
2023-04-22T21:14:34.472Z,1.20
2023-04-22T21:17:46.404Z,1.35
2023-04-22T21:21:00.303Z,0.70
2023-04-22T21:24:13.287Z,0.60
2023-04-22T21:27:23.951Z,0.82
2023-04-22T21:30:38.041Z,0.93
2023-04-22T21:33:49.803Z,0.50
2023-04-22T21:37:00.688Z,1.02
2023-04-22T21:40:13.150Z,1.10
2023-04-22T21:43:24.482Z,1.17
2023-04-22T21:46:34.732Z,0.68
2023-04-22T21:49:44.836Z,0.40
2023-04-22T21:52:58.392Z,0.68
2023-04-22T21:56:08.756Z,0.60
2023-04-22T21:59:20.996Z,0.78
2023-04-22T22:02:36.352Z,0.82
2023-04-22T22:05:45.149Z,0.72
2023-04-22T22:08:57.773Z,0.57
2023-04-22T22:12:08.588Z,0.35
2023-04-22T22:15:20.796Z,0.60
2023-04-22T22:18:30.491Z,0.47
2023-04-22T22:21:42.255Z,0.90
2023-04-22T22:24:53.265Z,0.40
2023-04-22T22:28:06.642Z,1.12
2023-04-22T22:31:15.687Z,0.82
2023-04-22T22:34:23.862Z,0.80
2023-04-22T22:37:33.358Z,0.60
2023-04-22T22:40:45.602Z,0.93
2023-04-22T22:43:58.228Z,0.90
2023-04-22T22:47:13.109Z,1.47
2023-04-22T22:50:26.973Z,1.02
2023-04-22T22:53:39.334Z,0.70
2023-04-22T22:56:50.259Z,1.02
2023-04-22T23:00:02.000Z,1.35
2023-04-22T23:03:13.102Z,1.20
2023-04-22T23:06:22.570Z,1.05
2023-04-22T23:09:35.394Z,0.60
2023-04-22T23:12:48.818Z,1.27
2023-04-22T23:16:03.105Z,1.25
2023-04-22T23:19:14.861Z,1.35
2023-04-22T23:22:26.614Z,1.22
2023-04-22T23:25:40.909Z,1.52
2023-04-22T23:28:56.247Z,1.15
2023-04-22T23:32:06.894Z,0.93
2023-04-22T23:35:19.666Z,1.00
2023-04-22T23:38:30.086Z,1.30
2023-04-22T23:41:40.599Z,1.05
2023-04-22T23:44:52.137Z,1.65
2023-04-22T23:48:05.124Z,1.12
2023-04-22T23:51:18.251Z,1.10
2023-04-22T23:57:44.749Z,1.30
